Time;durP1;ratioP1;P1;durP2;ratioP2;P2;SDS_P1;SDS_P2;PMS_P1;PMS_P2;Temp;Humidity;BMP_temperature;BMP_pressure;BME280_temperature;BME280_humidity;BME280_pressure;Samples;Min_cycle;Max_cycle;Signal;HPM_P1;HPM_P2
2023/03/09 00:01:43;;;;;;;12.82;5.95;;;1.70;99.90;;;;;;5131561;27;20398;-48
2023/03/09 00:04:13;;;;;;;10.68;5.55;;;2.00;99.90;;;;;;5074225;28;20529;-49
2023/03/09 00:06:39;;;;;;;11.35;6.13;;;1.70;99.90;;;;;;5119850;27;20071;-47
2023/03/09 00:09:05;;;;;;;14.93;6.28;;;1.70;99.90;;;;;;5132108;27;20080;-50
2023/03/09 00:11:31;;;;;;;12.18;5.50;;;1.70;99.90;;;;;;5131101;27;20074;-50
2023/03/09 00:13:56;;;;;;;13.18;6.20;;;1.60;99.90;;;;;;5131516;27;20122;-48
2023/03/09 00:16:25;;;;;;;12.48;6.22;;;1.60;99.90;;;;;;5130650;27;20039;-48
2023/03/09 00:18:53;;;;;;;12.50;6.82;;;1.60;99.90;;;;;;5132712;27;20054;-50
2023/03/09 00:21:36;;;;;;;14.02;6.03;;;1.50;99.90;;;;;;5131336;27;20118;-50
2023/03/09 00:24:09;;;;;;;15.82;6.57;;;1.50;99.90;;;;;;5100595;28;20468;-49
2023/03/09 00:26:38;;;;;;;11.93;5.82;;;1.50;99.90;;;;;;5130462;27;20039;-49
2023/03/09 00:29:04;;;;;;;12.77;6.45;;;1.50;99.90;;;;;;5130996;27;20054;-48
2023/03/09 00:31:30;;;;;;;12.90;6.15;;;1.60;99.90;;;;;;5130705;27;20043;-47
2023/03/09 00:33:56;;;;;;;11.38;6.05;;;1.40;99.90;;;;;;5132168;27;20473;-50
2023/03/09 00:36:22;;;;;;;14.30;6.10;;;1.40;99.90;;;;;;5122546;27;20089;-49
2023/03/09 00:38:52;;;;;;;11.48;6.25;;;1.40;99.90;;;;;;5130211;27;20577;-49
2023/03/09 00:41:19;;;;;;;11.95;5.93;;;1.40;99.90;;;;;;5120836;27;20090;-48
2023/03/09 00:43:45;;;;;;;13.45;6.68;;;1.40;99.90;;;;;;5117692;27;20043;-50
2023/03/09 00:46:12;;;;;;;11.90;5.70;;;1.40;99.90;;;;;;5130477;27;20031;-49
2023/03/09 00:48:38;;;;;;;14.18;6.40;;;1.40;99.90;;;;;;5131153;27;20031;-48
2023/03/09 00:51:05;;;;;;;12.65;5.80;;;1.40;99.90;;;;;;5129109;27;20518;-47
2023/03/09 00:53:30;;;;;;;11.80;6.10;;;1.30;99.90;;;;;;5131569;27;20069;-52
2023/03/09 00:55:59;;;;;;;11.63;5.93;;;1.30;99.90;;;;;;5091344;28;20075;-48
2023/03/09 00:58:25;;;;;;;12.63;6.05;;;1.30;99.90;;;;;;5117647;27;20138;-47
2023/03/09 01:00:51;;;;;;;13.30;6.30;;;1.30;99.90;;;;;;5131279;27;20205;-47
2023/03/09 01:03:16;;;;;;;12.35;6.03;;;1.20;99.90;;;;;;5131491;27;20050;-48
2023/03/09 01:05:42;;;;;;;13.65;6.05;;;1.30;99.90;;;;;;5130206;27;20047;-48
2023/03/09 01:08:08;;;;;;;13.48;6.70;;;1.80;99.90;;;;;;5119487;27;20121;-47
2023/03/09 01:10:33;;;;;;;13.43;6.97;;;1.20;99.90;;;;;;5130035;27;20043;-50
2023/03/09 01:12:59;;;;;;;13.07;6.00;;;1.20;99.90;;;;;;5130505;27;20161;-49
2023/03/09 01:15:25;;;;;;;16.75;6.82;;;1.20;99.90;;;;;;5106162;28;20051;-49
2023/03/09 01:17:50;;;;;;;14.52;6.80;;;1.20;99.90;;;;;;5096772;28;20039;-49
2023/03/09 01:20:16;;;;;;;15.73;6.85;;;1.20;99.90;;;;;;5123916;27;20039;-49
2023/03/09 01:22:42;;;;;;;14.23;6.82;;;1.20;99.90;;;;;;5129649;27;20027;-51
2023/03/09 01:25:08;;;;;;;14.55;7.05;;;1.20;99.90;;;;;;5128768;27;20514;-50
2023/03/09 01:27:33;;;;;;;17.90;7.30;;;1.10;99.90;;;;;;5129198;27;20053;-50
2023/03/09 01:29:59;;;;;;;15.98;7.65;;;1.10;99.90;;;;;;5130063;27;20035;-49
2023/03/09 01:32:25;;;;;;;16.00;6.85;;;1.10;99.90;;;;;;5130503;27;20042;-51
2023/03/09 01:34:52;;;;;;;15.75;7.70;;;1.10;99.90;;;;;;5130222;27;20510;-50
2023/03/09 01:37:18;;;;;;;16.08;7.57;;;1.10;99.90;;;;;;5130807;27;20053;-51
2023/03/09 01:39:44;;;;;;;18.23;7.65;;;1.10;99.90;;;;;;5128703;27;20039;-50
2023/03/09 01:42:10;;;;;;;16.05;7.50;;;1.10;99.90;;;;;;5130414;27;20038;-47
2023/03/09 01:44:36;;;;;;;16.95;7.97;;;1.10;99.90;;;;;;5089530;28;20028;-49
2023/03/09 01:47:03;;;;;;;17.13;8.20;;;1.10;99.90;;;;;;5116338;27;20039;-47
2023/03/09 01:49:42;;;;;;;15.52;7.55;;;1.10;99.90;;;;;;5089279;28;20118;-50
2023/03/09 01:52:19;;;;;;;14.77;7.68;;;1.10;99.90;;;;;;5120461;27;20379;-50
2023/03/09 01:55:02;;;;;;;14.18;7.15;;;1.00;99.90;;;;;;5131077;27;20497;-47
2023/03/09 01:57:34;;;;;;;17.40;9.02;;;1.00;99.90;;;;;;5130041;27;20027;-51
2023/03/09 02:00:18;;;;;;;16.30;7.72;;;1.00;99.90;;;;;;5129895;28;20043;-52
2023/03/09 02:03:01;;;;;;;16.88;8.02;;;1.00;99.90;;;;;;5129846;28;20091;-47
2023/03/09 02:05:44;;;;;;;15.98;7.82;;;1.70;99.90;;;;;;5124194;28;20087;-50
2023/03/09 02:08:11;;;;;;;19.05;7.93;;;1.00;99.90;;;;;;5128748;28;20935;-49
2023/03/09 02:10:43;;;;;;;17.88;8.18;;;1.00;99.90;;;;;;5127287;28;20071;-50
2023/03/09 02:13:13;;;;;;;17.27;8.63;;;1.00;99.90;;;;;;5128009;28;20031;-50
2023/03/09 02:15:39;;;;;;;16.17;7.82;;;1.00;99.90;;;;;;5129572;28;20539;-51
2023/03/09 02:18:05;;;;;;;15.52;8.00;;;1.00;99.90;;;;;;5128486;28;20051;-50
2023/03/09 02:20:49;;;;;;;17.08;8.40;;;1.00;99.90;;;;;;5129179;28;20039;-49
2023/03/09 02:23:33;;;;;;;17.73;8.52;;;0.80;99.90;;;;;;5129665;28;20039;-50
2023/03/09 02:26:16;;;;;;;17.77;8.48;;;1.00;99.90;;;;;;5129924;28;20057;-48
2023/03/09 02:28:41;;;;;;;17.48;8.10;;;1.00;99.90;;;;;;5099249;28;20048;-53
2023/03/09 02:31:08;;;;;;;16.63;7.93;;;1.00;99.90;;;;;;5121208;28;20912;-49
2023/03/09 02:33:34;;;;;;;16.00;8.13;;;1.00;99.90;;;;;;5130386;28;20062;-49
2023/03/09 02:36:00;;;;;;;18.45;8.93;;;1.00;99.90;;;;;;5129332;28;20047;-50
2023/03/09 02:38:26;;;;;;;19.30;7.78;;;1.00;99.90;;;;;;5129919;28;20435;-50
2023/03/09 02:40:56;;;;;;;18.13;7.38;;;0.90;99.90;;;;;;5128173;28;20104;-50
2023/03/09 02:43:28;;;;;;;14.68;7.30;;;1.00;99.90;;;;;;5129347;28;20039;-49
2023/03/09 02:45:54;;;;;;;17.00;7.78;;;1.00;99.90;;;;;;5125703;28;20043;-49
2023/03/09 02:48:20;;;;;;;16.25;7.78;;;1.00;99.90;;;;;;5128190;28;20468;-48
2023/03/09 02:50:45;;;;;;;16.55;7.55;;;1.00;99.90;;;;;;5121974;28;20035;-50
2023/03/09 02:53:11;;;;;;;18.55;7.88;;;1.00;99.90;;;;;;5129506;28;20440;-51
2023/03/09 02:55:37;;;;;;;20.17;7.93;;;1.00;99.90;;;;;;5127231;28;20114;-48
2023/03/09 02:58:03;;;;;;;15.15;7.75;;;1.10;99.90;;;;;;5128475;28;20092;-48
2023/03/09 03:00:28;;;;;;;16.52;8.13;;;1.00;99.90;;;;;;5127911;28;20398;-49
2023/03/09 03:02:54;;;;;;;15.88;7.90;;;1.00;99.90;;;;;;5129848;28;20412;-52
2023/03/09 03:05:20;;;;;;;17.25;8.15;;;1.00;99.90;;;;;;5129320;28;20039;-48
2023/03/09 03:07:46;;;;;;;19.58;8.60;;;1.00;99.90;;;;;;5097816;28;20128;-50
2023/03/09 03:10:12;;;;;;;16.85;7.90;;;1.00;99.90;;;;;;5122431;28;20039;-50
2023/03/09 03:12:37;;;;;;;17.42;7.97;;;1.00;99.90;;;;;;5098837;28;20051;-51
2023/03/09 03:15:05;;;;;;;18.13;7.60;;;1.00;99.90;;;;;;5126961;27;20062;-50
2023/03/09 03:17:30;;;;;;;18.05;8.60;;;1.00;99.90;;;;;;5133797;27;20047;-50
2023/03/09 03:19:56;;;;;;;17.45;8.02;;;1.00;99.90;;;;;;5131665;27;20038;-51
2023/03/09 03:22:22;;;;;;;18.75;8.00;;;1.00;99.90;;;;;;5067659;28;20085;-50
2023/03/09 03:24:48;;;;;;;16.33;8.23;;;1.00;99.90;;;;;;5126576;27;20378;-52
2023/03/09 03:27:13;;;;;;;18.83;7.93;;;1.00;99.90;;;;;;5132496;27;20035;-49
2023/03/09 03:29:39;;;;;;;16.75;8.90;;;1.00;99.90;;;;;;5131690;27;20363;-51
2023/03/09 03:32:05;;;;;;;18.33;8.55;;;1.00;99.90;;;;;;5133275;27;20031;-48
2023/03/09 03:34:31;;;;;;;16.00;8.02;;;1.00;99.90;;;;;;5095217;28;20065;-49
2023/03/09 03:36:57;;;;;;;16.65;7.68;;;1.00;99.90;;;;;;5091021;28;20039;-48
2023/03/09 03:39:22;;;;;;;16.00;8.13;;;0.90;99.90;;;;;;5126693;27;20027;-49
2023/03/09 03:41:48;;;;;;;18.55;8.73;;;1.00;99.90;;;;;;5130922;27;20115;-51
2023/03/09 03:44:14;;;;;;;15.48;7.38;;;0.90;99.90;;;;;;5131491;27;20414;-48
2023/03/09 03:46:39;;;;;;;15.77;7.95;;;0.90;99.90;;;;;;5100152;28;20101;-48
2023/03/09 03:49:05;;;;;;;16.20;7.72;;;0.90;99.90;;;;;;5127591;27;20138;-49
2023/03/09 03:51:31;;;;;;;17.38;8.32;;;1.00;99.90;;;;;;5132546;27;20063;-50
2023/03/09 03:53:57;;;;;;;16.67;7.97;;;0.90;99.90;;;;;;5131261;27;20035;-47
2023/03/09 03:56:23;;;;;;;17.15;8.13;;;1.00;99.90;;;;;;5132035;27;20475;-49
2023/03/09 03:58:48;;;;;;;17.88;7.38;;;0.90;99.90;;;;;;5131340;27;20039;-49
2023/03/09 04:01:14;;;;;;;17.20;8.77;;;0.90;99.90;;;;;;5101401;28;20047;-51
2023/03/09 04:03:40;;;;;;;17.88;8.20;;;0.90;99.90;;;;;;5124435;27;20039;-49
2023/03/09 04:06:05;;;;;;;16.48;7.50;;;1.00;99.90;;;;;;5132569;27;20031;-52
2023/03/09 04:08:32;;;;;;;16.92;8.45;;;0.90;99.90;;;;;;5131632;27;20367;-50
2023/03/09 04:10:57;;;;;;;15.55;8.00;;;1.00;99.90;;;;;;5131715;27;20498;-48
2023/03/09 04:13:23;;;;;;;16.38;7.85;;;1.00;99.90;;;;;;5130838;27;20058;-50
2023/03/09 04:15:49;;;;;;;18.45;8.35;;;1.00;99.90;;;;;;5127125;27;20071;-47
2023/03/09 04:18:15;;;;;;;17.25;8.18;;;0.90;99.90;;;;;;5131438;27;20041;-48
2023/03/09 04:20:42;;;;;;;16.98;8.10;;;0.90;99.90;;;;;;5126065;27;20032;-50
2023/03/09 04:23:09;;;;;;;16.63;7.93;;;1.00;99.90;;;;;;5128832;27;20054;-48
2023/03/09 04:25:35;;;;;;;17.70;8.27;;;0.90;99.90;;;;;;5100620;28;20035;-48
2023/03/09 04:28:02;;;;;;;18.02;8.38;;;1.00;99.90;;;;;;5097998;27;20044;-50
2023/03/09 04:30:28;;;;;;;17.77;7.72;;;1.30;99.90;;;;;;5130659;27;20163;-50
2023/03/09 04:32:53;;;;;;;17.58;8.13;;;0.90;99.90;;;;;;5130624;27;20149;-51
2023/03/09 04:35:19;;;;;;;15.55;7.32;;;1.00;99.90;;;;;;5131580;27;20035;-49
2023/03/09 04:37:45;;;;;;;17.98;8.18;;;1.00;99.90;;;;;;5130617;27;20031;-53
2023/03/09 04:40:12;;;;;;;17.23;8.07;;;0.90;99.90;;;;;;5132060;27;20114;-49
2023/03/09 04:42:37;;;;;;;16.83;8.00;;;0.90;99.90;;;;;;5098503;27;20105;-50
2023/03/09 04:45:04;;;;;;;18.88;8.57;;;0.90;99.90;;;;;;5132222;27;20408;-50
2023/03/09 04:47:30;;;;;;;18.25;8.70;;;0.90;99.90;;;;;;5130419;27;20070;-48
2023/03/09 04:49:56;;;;;;;16.50;8.25;;;0.90;99.90;;;;;;5130694;27;20035;-50
2023/03/09 04:52:22;;;;;;;20.35;7.45;;;0.90;99.90;;;;;;5130175;27;20053;-49
2023/03/09 04:54:48;;;;;;;19.20;8.57;;;0.80;99.90;;;;;;5130998;27;20084;-51
2023/03/09 04:57:14;;;;;;;15.55;7.65;;;0.80;99.90;;;;;;5131759;27;20092;-48
2023/03/09 04:59:40;;;;;;;16.00;7.85;;;0.90;99.90;;;;;;5130535;27;20054;-50
2023/03/09 05:02:06;;;;;;;18.83;8.48;;;0.80;99.90;;;;;;5098258;28;20043;-50
2023/03/09 05:04:32;;;;;;;18.98;8.75;;;0.80;99.90;;;;;;5126677;27;20058;-49
2023/03/09 05:06:58;;;;;;;16.95;7.97;;;0.80;99.90;;;;;;5125316;27;20073;-48
2023/03/09 05:09:25;;;;;;;18.70;8.45;;;0.80;99.90;;;;;;5131798;27;20082;-49
2023/03/09 05:11:51;;;;;;;17.48;8.20;;;0.80;99.90;;;;;;5130123;27;20035;-48
2023/03/09 05:14:21;;;;;;;19.52;7.93;;;0.80;99.90;;;;;;5092341;28;20116;-48
2023/03/09 05:16:51;;;;;;;19.25;9.13;;;0.80;99.90;;;;;;5115225;27;20069;-49
2023/03/09 05:19:18;;;;;;;21.45;8.90;;;0.80;99.90;;;;;;5090954;28;20031;-48
2023/03/09 05:21:43;;;;;;;18.30;8.65;;;0.70;99.90;;;;;;5096868;28;20044;-49
2023/03/09 05:24:09;;;;;;;20.70;9.18;;;0.70;99.90;;;;;;5128549;27;20405;-51
2023/03/09 05:26:35;;;;;;;18.65;8.48;;;0.70;99.90;;;;;;5131253;27;20500;-52
2023/03/09 05:29:00;;;;;;;19.52;8.63;;;0.80;99.90;;;;;;5130060;27;20057;-47
2023/03/09 05:31:26;;;;;;;21.05;8.82;;;0.70;99.90;;;;;;5130696;27;20039;-52
2023/03/09 05:33:52;;;;;;;19.55;9.15;;;0.70;99.90;;;;;;5113397;27;20039;-51
2023/03/09 05:36:23;;;;;;;20.05;8.43;;;0.80;99.90;;;;;;5130783;27;20036;-50
2023/03/09 05:38:50;;;;;;;19.45;9.32;;;0.70;99.90;;;;;;5128968;27;20039;-48
2023/03/09 05:41:16;;;;;;;18.67;8.93;;;0.80;99.90;;;;;;5098068;28;20137;-50
2023/03/09 05:43:42;;;;;;;18.10;8.80;;;1.00;99.90;;;;;;5089911;28;20044;-47
2023/03/09 05:46:12;;;;;;;21.17;9.88;;;0.70;99.90;;;;;;5091100;28;20105;-49
2023/03/09 05:48:39;;;;;;;19.75;8.30;;;0.70;99.90;;;;;;5091067;28;20391;-52
2023/03/09 05:51:07;;;;;;;21.48;9.77;;;0.70;99.90;;;;;;5113606;27;20454;-47
2023/03/09 05:53:34;;;;;;;20.98;8.98;;;1.00;99.90;;;;;;5127263;27;20487;-49
2023/03/09 05:56:00;;;;;;;20.85;8.90;;;0.80;99.90;;;;;;5129072;27;20035;-51
2023/03/09 05:58:26;;;;;;;25.45;9.43;;;0.80;99.90;;;;;;5129051;27;20035;-49
2023/03/09 06:00:52;;;;;;;20.17;9.90;;;0.80;99.90;;;;;;5130553;28;20401;-51
2023/03/09 06:03:21;;;;;;;18.58;8.95;;;0.90;99.90;;;;;;5128947;28;20042;-47
2023/03/09 06:05:46;;;;;;;22.55;9.93;;;0.80;99.90;;;;;;5129829;28;20039;-48
2023/03/09 06:08:13;;;;;;;19.63;9.27;;;0.80;99.90;;;;;;5129237;28;20531;-48
2023/03/09 06:10:39;;;;;;;21.75;9.00;;;0.80;99.90;;;;;;5130048;28;20035;-48
2023/03/09 06:13:05;;;;;;;22.02;10.45;;;1.30;99.90;;;;;;5128318;28;20050;-48
2023/03/09 06:15:31;;;;;;;22.30;9.85;;;0.80;99.90;;;;;;5129814;28;20047;-51
2023/03/09 06:17:57;;;;;;;20.58;9.50;;;0.80;99.90;;;;;;5074600;28;20387;-49
2023/03/09 06:20:23;;;;;;;23.85;11.05;;;0.80;99.90;;;;;;5096596;28;20036;-48
2023/03/09 06:22:48;;;;;;;24.52;11.45;;;0.90;99.90;;;;;;5119691;28;20031;-48
2023/03/09 06:25:15;;;;;;;23.10;10.35;;;0.90;99.90;;;;;;5129215;28;20031;-52
2023/03/09 06:27:41;;;;;;;23.17;10.70;;;0.90;99.90;;;;;;5129874;28;20051;-47
2023/03/09 06:30:08;;;;;;;22.77;10.80;;;0.80;99.90;;;;;;5130097;28;20047;-49
2023/03/09 06:32:34;;;;;;;23.65;10.70;;;0.80;99.90;;;;;;5112831;28;20114;-50
2023/03/09 06:35:00;;;;;;;24.15;11.27;;;0.90;99.90;;;;;;5127854;28;20028;-48
2023/03/09 06:37:27;;;;;;;22.10;10.73;;;0.90;99.90;;;;;;5123275;28;20039;-49
2023/03/09 06:39:52;;;;;;;23.25;10.27;;;0.90;99.90;;;;;;5126256;28;20042;-47
2023/03/09 06:42:18;;;;;;;22.55;11.15;;;0.80;99.90;;;;;;5128615;28;20039;-49
2023/03/09 06:44:45;;;;;;;24.70;10.32;;;0.90;99.90;;;;;;5128610;28;20131;-48
2023/03/09 06:47:11;;;;;;;23.88;10.50;;;0.80;99.90;;;;;;5131579;27;20114;-52
2023/03/09 06:49:37;;;;;;;23.95;11.23;;;0.90;99.90;;;;;;5134985;27;20039;-50
2023/03/09 06:52:03;;;;;;;22.92;10.40;;;0.90;99.90;;;;;;5133694;27;20057;-50
2023/03/09 06:54:29;;;;;;;26.33;11.02;;;0.90;99.90;;;;;;5104932;28;20043;-48
2023/03/09 06:56:55;;;;;;;24.02;10.40;;;1.10;99.90;;;;;;5118562;27;21214;-50
2023/03/09 06:59:20;;;;;;;22.08;10.52;;;1.00;99.90;;;;;;5132080;27;20030;-50
2023/03/09 07:01:46;;;;;;;23.60;11.38;;;1.10;99.90;;;;;;5134364;27;20035;-50
2023/03/09 07:04:12;;;;;;;22.98;11.27;;;1.10;99.90;;;;;;5124374;27;20070;-49
2023/03/09 07:06:37;;;;;;;28.88;12.25;;;1.10;99.90;;;;;;5125698;27;20486;-50
2023/03/09 07:09:03;;;;;;;28.63;12.40;;;1.20;99.90;;;;;;5115906;27;20130;-50
2023/03/09 07:11:30;;;;;;;24.10;10.95;;;1.10;99.90;;;;;;5132096;27;20077;-49
2023/03/09 07:13:55;;;;;;;23.92;12.10;;;1.20;99.90;;;;;;5132811;27;20046;-50
2023/03/09 07:16:24;;;;;;;28.92;12.45;;;1.10;99.90;;;;;;5132335;27;20134;-48
2023/03/09 07:18:50;;;;;;;25.00;11.85;;;1.20;99.90;;;;;;5131812;27;20279;-52
2023/03/09 07:21:16;;;;;;;27.52;12.73;;;1.20;99.90;;;;;;5125033;27;20479;-50
2023/03/09 07:23:41;;;;;;;23.80;11.20;;;1.30;99.90;;;;;;5131194;27;20047;-51
2023/03/09 07:26:07;;;;;;;25.58;12.30;;;1.80;99.90;;;;;;5131983;27;20031;-48
2023/03/09 07:28:33;;;;;;;24.40;10.90;;;1.20;99.90;;;;;;5132783;27;20082;-48
2023/03/09 07:31:09;;;;;;;27.40;12.38;;;1.30;99.90;;;;;;5133534;27;20429;-46
2023/03/09 07:33:35;;;;;;;28.38;12.88;;;1.30;99.90;;;;;;5103128;28;20044;-50
2023/03/09 07:36:05;;;;;;;26.65;11.82;;;1.40;99.90;;;;;;5113624;27;20534;-51
2023/03/09 07:38:31;;;;;;;27.30;12.48;;;1.40;99.90;;;;;;5097291;27;20621;-47
2023/03/09 07:41:01;;;;;;;27.42;12.57;;;1.50;99.90;;;;;;5104910;27;20043;-53
2023/03/09 07:43:27;;;;;;;25.85;12.98;;;1.50;99.90;;;;;;5089410;28;20042;-49
2023/03/09 07:45:53;;;;;;;25.40;12.50;;;1.50;99.90;;;;;;5092021;28;20495;-50
2023/03/09 07:48:18;;;;;;;27.77;12.70;;;1.60;99.90;;;;;;5108728;27;20027;-52
2023/03/09 07:50:44;;;;;;;25.17;12.30;;;2.00;99.90;;;;;;5108858;27;20126;-51
2023/03/09 07:53:11;;;;;;;27.15;13.05;;;1.60;99.90;;;;;;5091006;28;20027;-53
2023/03/09 07:55:37;;;;;;;24.95;12.75;;;1.60;99.90;;;;;;5105858;27;20031;-48
2023/03/09 07:58:04;;;;;;;25.88;12.57;;;1.70;99.90;;;;;;5101713;27;20065;-48
2023/03/09 08:00:32;;;;;;;27.02;12.65;;;1.70;99.90;;;;;;5101916;27;20429;-52
2023/03/09 08:02:58;;;;;;;25.88;12.63;;;1.80;99.90;;;;;;5099941;27;20067;-47
2023/03/09 08:05:24;;;;;;;27.35;13.52;;;1.80;99.90;;;;;;5104084;27;20585;-49
2023/03/09 08:07:50;;;;;;;27.45;12.68;;;1.80;99.90;;;;;;5103981;27;20135;-49
2023/03/09 08:10:19;;;;;;;28.52;13.23;;;2.10;99.90;;;;;;5097875;27;20068;-49
2023/03/09 08:12:49;;;;;;;24.60;12.52;;;1.90;99.90;;;;;;5101918;27;20100;-48
2023/03/09 08:15:17;;;;;;;26.67;12.43;;;1.90;99.90;;;;;;5101746;27;20047;-51
2023/03/09 08:17:42;;;;;;;29.45;13.93;;;2.00;99.90;;;;;;5103533;27;20040;-50
2023/03/09 08:20:11;;;;;;;26.48;12.73;;;2.00;99.90;;;;;;5086901;28;20039;-51
2023/03/09 08:22:37;;;;;;;29.27;13.65;;;2.00;99.90;;;;;;5103000;27;20044;-50
2023/03/09 08:25:03;;;;;;;24.17;12.93;;;2.10;99.90;;;;;;5101167;27;20096;-48
2023/03/09 08:27:29;;;;;;;23.95;12.27;;;2.10;99.90;;;;;;5099121;27;20089;-49
2023/03/09 08:29:55;;;;;;;25.20;12.45;;;2.50;99.90;;;;;;5090753;28;20035;-49
2023/03/09 08:32:23;;;;;;;22.73;11.98;;;2.20;99.90;;;;;;5103359;27;20540;-53
2023/03/09 08:34:53;;;;;;;25.30;12.70;;;2.30;99.90;;;;;;5099671;27;20040;-49
2023/03/09 08:37:19;;;;;;;24.38;11.88;;;2.30;99.90;;;;;;5104236;27;20333;-49
2023/03/09 08:39:44;;;;;;;26.33;13.18;;;2.30;99.90;;;;;;5102288;27;20072;-49
2023/03/09 08:42:10;;;;;;;22.30;12.57;;;2.40;99.90;;;;;;5107706;27;20176;-51
2023/03/09 08:44:36;;;;;;;23.30;12.50;;;2.30;99.90;;;;;;5108697;27;20071;-49
2023/03/09 08:47:02;;;;;;;20.70;11.70;;;2.40;99.90;;;;;;5103959;27;20118;-50
2023/03/09 08:49:28;;;;;;;23.13;11.55;;;2.40;99.90;;;;;;5103686;27;20048;-48
2023/03/09 08:51:55;;;;;;;23.77;11.77;;;2.50;99.90;;;;;;5090456;28;20043;-49
2023/03/09 08:54:20;;;;;;;21.90;11.85;;;2.50;99.90;;;;;;5101032;27;20216;-51
2023/03/09 08:56:46;;;;;;;24.05;12.07;;;2.50;99.90;;;;;;5102268;27;20514;-51
2023/03/09 08:59:12;;;;;;;21.63;12.05;;;2.50;99.90;;;;;;5096783;27;20036;-51
2023/03/09 09:01:38;;;;;;;21.77;11.85;;;1.60;99.90;;;;;;5100423;27;20103;-51
2023/03/09 09:04:04;;;;;;;25.13;12.27;;;2.60;99.90;;;;;;5100892;27;20147;-52
2023/03/09 09:06:30;;;;;;;20.33;11.10;;;2.70;99.90;;;;;;5098990;27;20044;-48
2023/03/09 09:08:56;;;;;;;23.23;12.73;;;2.60;99.90;;;;;;5099070;27;20031;-48
2023/03/09 09:11:21;;;;;;;21.42;10.82;;;2.50;99.90;;;;;;5096315;27;20039;-51
2023/03/09 09:13:47;;;;;;;23.15;11.63;;;2.60;99.90;;;;;;5099948;27;20027;-49
2023/03/09 09:16:14;;;;;;;26.75;12.80;;;2.70;99.90;;;;;;5098396;27;20543;-50
2023/03/09 09:18:40;;;;;;;21.13;11.60;;;2.70;99.90;;;;;;5088590;28;20048;-50
2023/03/09 09:21:07;;;;;;;21.88;11.52;;;2.80;99.90;;;;;;5099728;27;20122;-48
2023/03/09 09:23:38;;;;;;;22.38;12.23;;;2.80;99.90;;;;;;5100795;27;20067;-49
2023/03/09 09:26:05;;;;;;;21.20;11.43;;;2.90;99.90;;;;;;5102596;27;20475;-49
2023/03/09 09:28:31;;;;;;;20.98;11.63;;;2.90;99.90;;;;;;5099768;27;20046;-49
2023/03/09 09:30:59;;;;;;;21.15;11.93;;;3.40;99.90;;;;;;5097411;28;20035;-51
2023/03/09 09:33:27;;;;;;;22.13;11.85;;;2.90;99.90;;;;;;5100533;27;20031;-48
2023/03/09 09:36:02;;;;;;;21.60;11.70;;;2.90;99.90;;;;;;5098121;27;20044;-49
2023/03/09 09:38:31;;;;;;;21.90;12.27;;;2.80;99.90;;;;;;5101389;27;20122;-47
2023/03/09 09:41:01;;;;;;;20.88;11.70;;;2.80;99.90;;;;;;5098423;27;20153;-48
2023/03/09 09:43:30;;;;;;;21.55;11.93;;;3.30;99.90;;;;;;5098560;27;20579;-47
2023/03/09 09:45:59;;;;;;;21.75;11.93;;;2.90;99.90;;;;;;5097720;27;20119;-50
2023/03/09 09:48:27;;;;;;;21.67;12.25;;;2.90;99.90;;;;;;5097086;27;20035;-49
2023/03/09 09:51:23;;;;;;;22.42;11.82;;;2.90;99.90;;;;;;5097912;28;20122;-48
2023/03/09 09:53:49;;;;;;;23.10;11.02;;;3.00;99.90;;;;;;5099227;27;20027;-49
2023/03/09 09:56:18;;;;;;;21.38;11.20;;;3.00;99.90;;;;;;5098998;28;20030;-50
2023/03/09 09:58:46;;;;;;;21.75;12.70;;;3.10;99.90;;;;;;5100672;27;20043;-51
2023/03/09 10:01:41;;;;;;;24.67;12.23;;;3.10;99.90;;;;;;5090273;28;20384;-49
2023/03/09 10:04:16;;;;;;;22.55;11.57;;;3.20;99.90;;;;;;5126625;28;20039;-47
2023/03/09 10:06:45;;;;;;;21.65;11.77;;;3.20;99.90;;;;;;5126232;28;20039;-50
2023/03/09 10:09:11;;;;;;;22.20;12.13;;;3.20;99.90;;;;;;5128756;28;20168;-51
2023/03/09 10:11:43;;;;;;;22.13;12.57;;;3.20;99.90;;;;;;5088726;28;20127;-49
2023/03/09 10:14:35;;;;;;;21.02;11.65;;;3.30;99.90;;;;;;5116221;28;20560;-48
2023/03/09 10:17:13;;;;;;;20.35;11.95;;;3.30;99.90;;;;;;5128882;28;20047;-51
2023/03/09 10:19:40;;;;;;;22.88;12.50;;;3.30;99.90;;;;;;5090225;28;20423;-49
2023/03/09 10:22:14;;;;;;;21.85;12.63;;;3.60;99.90;;;;;;5098129;28;20482;-50
2023/03/09 10:24:43;;;;;;;24.67;12.68;;;3.40;99.90;;;;;;5133391;27;20078;-49
2023/03/09 10:27:18;;;;;;;23.05;12.27;;;3.40;99.90;;;;;;5100936;28;20043;-50
2023/03/09 10:29:55;;;;;;;22.27;11.07;;;3.50;99.90;;;;;;5132788;27;20043;-48
2023/03/09 10:32:28;;;;;;;22.38;12.68;;;3.50;99.90;;;;;;5132643;27;20054;-48
2023/03/09 10:35:06;;;;;;;21.08;12.13;;;3.50;99.90;;;;;;5132352;27;20039;-50
2023/03/09 10:37:36;;;;;;;24.58;12.77;;;3.50;99.90;;;;;;5105228;28;20096;-47
2023/03/09 10:40:14;;;;;;;22.65;12.63;;;3.50;99.90;;;;;;5078423;27;20047;-48
2023/03/09 10:42:40;;;;;;;21.55;12.18;;;3.50;99.90;;;;;;5134014;27;20035;-49
2023/03/09 10:45:21;;;;;;;21.73;11.77;;;3.50;99.90;;;;;;5132881;27;20045;-48
2023/03/09 10:47:59;;;;;;;24.23;13.18;;;3.60;99.90;;;;;;5134680;27;20099;-48
2023/03/09 10:50:35;;;;;;;22.75;13.00;;;3.60;99.90;;;;;;5132784;27;20031;-47
2023/03/09 10:53:48;;;;;;;22.80;11.95;;;3.60;99.90;;;;;;5102544;27;20122;-49
2023/03/09 10:56:24;;;;;;;20.15;11.65;;;3.60;99.90;;;;;;4999113;28;20050;-47
2023/03/09 10:59:07;;;;;;;20.92;11.20;;;5.50;99.90;;;;;;5110113;27;20091;-48
2023/03/09 11:01:39;;;;;;;21.27;11.90;;;3.50;99.90;;;;;;5133144;27;20112;-51
2023/03/09 11:04:23;;;;;;;23.25;11.43;;;3.50;99.90;;;;;;5133486;27;20051;-49
2023/03/09 11:07:15;;;;;;;22.58;11.75;;;3.50;99.90;;;;;;5122827;27;20459;-52
2023/03/09 11:09:41;;;;;;;22.42;12.15;;;3.50;99.90;;;;;;5119734;27;20392;-50
2023/03/09 11:12:22;;;;;;;23.60;12.15;;;3.50;99.90;;;;;;5132821;27;20044;-49
2023/03/09 11:14:56;;;;;;;23.42;13.07;;;3.50;99.90;;;;;;5132580;27;20046;-49
2023/03/09 11:17:31;;;;;;;23.00;12.48;;;3.50;99.90;;;;;;5131590;27;20074;-48
2023/03/09 11:20:12;;;;;;;21.48;12.05;;;3.60;99.90;;;;;;5132415;27;20127;-48
2023/03/09 11:22:42;;;;;;;21.98;11.98;;;3.60;99.90;;;;;;5102044;28;20483;-50
2023/03/09 11:25:14;;;;;;;20.60;12.32;;;3.70;99.90;;;;;;5130316;27;20035;-49
2023/03/09 11:27:46;;;;;;;22.42;12.80;;;3.70;99.90;;;;;;5134110;27;20085;-51
2023/03/09 11:30:15;;;;;;;26.20;13.50;;;3.70;99.90;;;;;;5132027;27;20035;-48
2023/03/09 11:32:41;;;;;;;20.33;12.13;;;3.80;99.90;;;;;;5131603;27;20039;-50
2023/03/09 11:35:15;;;;;;;22.90;12.57;;;3.90;99.90;;;;;;5124618;27;20691;-49
2023/03/09 11:37:47;;;;;;;20.17;11.45;;;3.90;99.90;;;;;;5125579;27;20039;-50
2023/03/09 11:40:22;;;;;;;20.55;12.18;;;3.90;99.90;;;;;;5111033;27;20058;-53
2023/03/09 11:43:04;;;;;;;21.02;11.90;;;4.00;99.90;;;;;;5090996;27;20041;-49
2023/03/09 11:45:32;;;;;;;21.25;12.18;;;3.90;99.90;;;;;;5115510;27;20064;-49
2023/03/09 11:48:03;;;;;;;22.20;13.00;;;4.00;99.90;;;;;;5111767;27;20047;-48
2023/03/09 11:50:44;;;;;;;21.50;11.98;;;3.80;99.90;;;;;;5118712;27;20114;-47
2023/03/09 11:53:25;;;;;;;20.50;12.27;;;3.80;99.90;;;;;;5123204;27;20066;-51
2023/03/09 11:55:55;;;;;;;21.90;12.55;;;3.80;99.90;;;;;;5123924;27;20032;-51
2023/03/09 11:58:29;;;;;;;20.88;12.05;;;3.80;99.90;;;;;;5125054;27;20023;-50
2023/03/09 12:01:06;;;;;;;20.00;11.85;;;3.80;99.90;;;;;;5091381;27;20078;-51
2023/03/09 12:03:42;;;;;;;20.33;11.65;;;3.80;99.90;;;;;;5127031;27;20128;-47
2023/03/09 12:06:38;;;;;;;21.25;12.65;;;3.80;99.90;;;;;;5125359;27;20051;-50
2023/03/09 12:09:10;;;;;;;21.10;11.75;;;3.90;99.90;;;;;;5129487;27;20043;-49
2023/03/09 12:11:47;;;;;;;21.88;12.07;;;3.90;99.90;;;;;;5125875;27;20482;-47
2023/03/09 12:14:15;;;;;;;23.85;12.13;;;4.10;99.90;;;;;;5122421;27;20035;-52
2023/03/09 12:16:44;;;;;;;19.55;11.68;;;4.00;99.90;;;;;;5094978;27;20182;-48
2023/03/09 12:19:10;;;;;;;22.65;12.93;;;4.10;99.90;;;;;;5092031;27;20035;-49
2023/03/09 12:21:44;;;;;;;23.15;12.88;;;4.10;99.90;;;;;;5091324;27;20084;-48
2023/03/09 12:24:31;;;;;;;21.27;12.85;;;4.40;99.90;;;;;;5123237;27;20483;-48
2023/03/09 12:27:26;;;;;;;22.92;13.13;;;4.10;99.90;;;;;;5128818;27;20074;-47
2023/03/09 12:29:52;;;;;;;;;;;4.20;99.90;;;;;;5126000;27;20102;-50
2023/03/09 12:32:21;;;;;;;21.65;11.68;;;4.70;99.90;;;;;;5123415;27;19919;-50
2023/03/09 12:34:49;;;;;;;25.17;13.70;;;4.20;99.90;;;;;;5124366;27;20535;-49
2023/03/09 12:37:51;;;;;;;21.42;12.65;;;4.20;99.90;;;;;;5128944;27;20466;-49
2023/03/09 12:40:17;;;;;;;25.23;12.23;;;4.30;99.90;;;;;;5088482;27;20096;-51
2023/03/09 12:42:48;;;;;;;23.38;14.32;;;4.30;99.90;;;;;;5101283;27;20043;-48
2023/03/09 12:45:16;;;;;;;22.17;13.35;;;4.30;99.90;;;;;;5129075;27;20044;-47
2023/03/09 12:47:48;;;;;;;23.60;13.73;;;4.30;99.90;;;;;;5123172;27;20510;-51
2023/03/09 12:50:26;;;;;;;26.60;14.75;;;4.60;99.90;;;;;;5125181;27;20036;-49
2023/03/09 12:53:14;;;;;;;23.27;13.52;;;4.20;99.90;;;;;;5089936;27;20074;-47